Portada
METAR-TAF:

METAR-TAF

Aeroports :

Ulan Bator, Mongòlia

latitud: 47-55N, longitud: 106-52E, altitud: 1306 m

Observació

L'informe es va fer fa 14 minuts, a les 04:00 UTC
Vent 2 kt amb direcció variable
Temperatura 5°C
Humitat 24%
Pressió 1030 hPa
Visibilitat 10 km o més
sense núvols per sota de 1500 mi sense presència de cumulonimbus.

METAR: ZMUB 150400Z VRB01MPS CAVOK 05/M14 Q1030 NOSIG RMK QFE663.7 25

Hora: 12:14 (04:14 UTC)

Pronòstic

L'informe es va fer fa 5 hores i 34 minuts, a les 22:40 UTC
Pronòstic vàlid del 15 a les 00 UTC al 16 a les 06 UTC
Vent 4 kt amb direcció variable
Visibilitat 10 km o més
Núvols disperses a una alçada de 10000 ft

TAF: ZMUB 142240Z 1500/1606 VRB02MPS 9999 SCT100 TX09/1506Z TNM14/1522Z

Observacions i pronòstics meteorològics de més de 4000 aeroports (METAR i TAF).

Les estacions disponibles són els punts grocs i vermells al mapa.

Posi el ratolí al punt desitjat per veure el nom de l'estació.

Feu clic per veure les observacions i els pronòstics meteorològics.

Per canviar el mapa: feu clic els botons verds amb una creu de color negre per apropar; al botó verd amb un guió per allunyar la imatge; o en les fletxes verdes per a mapes adjacents.


METAR-TAF: